createdAt,value
2024-02-07T00:01:01.749Z,13.00
2024-02-07T00:02:05.428Z,12.00
2024-02-07T00:03:08.505Z,12.00
2024-02-07T00:04:10.777Z,12.00
2024-02-07T00:05:14.116Z,11.33
2024-02-07T00:06:18.052Z,11.00
2024-02-07T00:07:21.261Z,11.00
2024-02-07T00:08:23.519Z,11.00
2024-02-07T00:09:25.761Z,11.00
2024-02-07T00:10:28.859Z,11.00
2024-02-07T00:11:31.022Z,11.00
2024-02-07T00:12:34.370Z,11.00
2024-02-07T00:13:36.746Z,11.00
2024-02-07T00:14:38.913Z,11.00
2024-02-07T00:15:42.027Z,11.00
2024-02-07T00:16:44.224Z,11.00
2024-02-07T00:17:49.113Z,11.00
2024-02-07T00:18:51.296Z,11.50
2024-02-07T00:19:54.309Z,12.00
2024-02-07T00:20:57.526Z,12.00
2024-02-07T00:21:59.570Z,12.00
2024-02-07T00:23:02.733Z,12.33
2024-02-07T00:24:06.992Z,13.17
2024-02-07T00:25:09.361Z,14.00
2024-02-07T00:26:12.483Z,14.00
2024-02-07T00:27:14.633Z,13.67
2024-02-07T00:28:17.779Z,13.00
2024-02-07T00:29:20.384Z,13.00
2024-02-07T00:30:30.981Z,13.00
2024-02-07T00:31:36.779Z,13.00
2024-02-07T00:32:40.057Z,13.00
2024-02-07T00:33:43.547Z,13.00
2024-02-07T00:34:46.735Z,13.00
2024-02-07T00:35:48.934Z,13.00
2024-02-07T00:36:52.108Z,13.00
2024-02-07T00:37:54.358Z,13.00
2024-02-07T00:38:57.476Z,13.00
2024-02-07T00:39:59.613Z,13.00
2024-02-07T00:41:02.773Z,13.00
2024-02-07T00:42:05.470Z,13.00
2024-02-07T00:43:08.610Z,13.00
2024-02-07T00:44:10.785Z,13.00
2024-02-07T00:45:14.278Z,13.00
2024-02-07T00:46:16.758Z,13.00
2024-02-07T00:47:19.957Z,13.00
2024-02-07T00:48:22.041Z,13.00
2024-02-07T00:49:25.707Z,13.00
2024-02-07T00:50:28.982Z,13.00
2024-02-07T00:51:31.104Z,13.00
2024-02-07T00:52:34.281Z,13.67
2024-02-07T00:53:36.496Z,14.83
2024-02-07T00:54:39.679Z,15.00
2024-02-07T00:55:42.033Z,15.00
2024-02-07T00:56:45.114Z,15.00
2024-02-07T00:57:48.211Z,15.00
2024-02-07T00:58:51.347Z,15.00
2024-02-07T00:59:53.508Z,15.00
2024-02-07T01:00:56.838Z,15.00
2024-02-07T01:01:59.032Z,15.00
2024-02-07T01:03:02.223Z,15.33
2024-02-07T01:04:04.778Z,16.00
2024-02-07T01:05:10.862Z,16.00
2024-02-07T01:06:13.841Z,16.00
2024-02-07T01:07:17.143Z,16.00
2024-02-07T01:08:19.350Z,16.00
2024-02-07T01:09:22.388Z,16.50
2024-02-07T01:10:25.516Z,17.00
2024-02-07T01:11:27.773Z,17.00
2024-02-07T01:12:30.894Z,17.00
2024-02-07T01:13:33.078Z,17.00
2024-02-07T01:14:36.257Z,17.00
2024-02-07T01:15:38.436Z,16.83
2024-02-07T01:16:41.819Z,16.00
2024-02-07T01:17:44.080Z,16.00
2024-02-07T01:18:47.232Z,16.00
2024-02-07T01:19:49.632Z,15.00
2024-02-07T01:20:54.097Z,14.50
2024-02-07T01:21:57.281Z,14.00
2024-02-07T01:23:00.468Z,13.33
2024-02-07T01:24:05.349Z,13.00
2024-02-07T01:25:08.937Z,13.00
2024-02-07T01:26:12.377Z,12.67
2024-02-07T01:27:15.798Z,12.00
2024-02-07T01:28:18.031Z,12.00
2024-02-07T01:29:22.448Z,12.00
2024-02-07T01:30:24.609Z,12.00
2024-02-07T01:31:29.288Z,12.00
2024-02-07T01:32:31.649Z,12.00
2024-02-07T01:33:33.993Z,12.33
2024-02-07T01:34:37.243Z,13.00
2024-02-07T01:35:39.406Z,13.00
2024-02-07T01:36:47.585Z,13.00
2024-02-07T01:37:50.222Z,13.00
2024-02-07T01:38:55.125Z,13.00
2024-02-07T01:39:57.233Z,13.00
2024-02-07T01:41:00.537Z,13.00
2024-02-07T01:42:04.030Z,13.00
2024-02-07T01:43:06.283Z,13.00
2024-02-07T01:44:09.385Z,13.00
2024-02-07T01:45:27.053Z,13.83
2024-02-07T01:46:33.847Z,14.00
2024-02-07T01:47:36.354Z,14.00
2024-02-07T01:48:39.692Z,14.83
2024-02-07T01:49:43.858Z,15.00
2024-02-07T01:50:46.979Z,15.00
2024-02-07T01:51:50.400Z,15.00
2024-02-07T01:52:56.186Z,15.00
2024-02-07T01:53:58.507Z,14.67
2024-02-07T01:55:02.216Z,14.00
2024-02-07T01:56:05.944Z,14.00
2024-02-07T01:57:09.428Z,14.00
2024-02-07T01:58:11.689Z,14.00
2024-02-07T01:59:14.875Z,14.00
2024-02-07T02:00:17.798Z,14.00
2024-02-07T02:01:21.188Z,14.00
2024-02-07T02:02:24.707Z,14.00
2024-02-07T02:03:28.167Z,14.00
2024-02-07T02:04:31.137Z,14.00
2024-02-07T02:05:34.166Z,14.00
2024-02-07T02:06:36.934Z,14.00
2024-02-07T02:07:42.170Z,14.00
2024-02-07T02:08:44.615Z,13.00
2024-02-07T02:09:48.380Z,13.00
2024-02-07T02:10:52.964Z,13.00
2024-02-07T02:11:58.370Z,13.00
2024-02-07T02:13:00.712Z,13.00
2024-02-07T02:14:03.940Z,13.00
2024-02-07T02:15:07.132Z,13.00
2024-02-07T02:16:10.311Z,13.00
2024-02-07T02:17:12.402Z,13.00
2024-02-07T02:18:15.538Z,13.00
2024-02-07T02:19:19.317Z,13.00
2024-02-07T02:20:23.186Z,13.00
2024-02-07T02:21:28.372Z,13.00
2024-02-07T02:22:48.279Z,13.33
2024-02-07T02:24:13.025Z,14.00
2024-02-07T02:25:41.166Z,14.00
2024-02-07T02:27:01.856Z,14.00
2024-02-07T02:28:18.677Z,14.50
2024-02-07T02:29:33.660Z,16.50
2024-02-07T02:30:48.320Z,18.00
2024-02-07T02:31:55.893Z,18.67
2024-02-07T02:33:00.215Z,19.00
2024-02-07T02:34:03.960Z,19.17
2024-02-07T02:35:09.318Z,20.00
2024-02-07T02:36:11.483Z,21.00
2024-02-07T02:37:15.173Z,22.17
2024-02-07T02:38:19.613Z,23.00
2024-02-07T02:39:23.251Z,23.33
2024-02-07T02:40:25.357Z,24.00
2024-02-07T02:41:28.487Z,24.67
2024-02-07T02:42:30.635Z,26.00
2024-02-07T02:43:34.006Z,27.00
2024-02-07T02:44:37.725Z,30.00
2024-02-07T02:45:42.334Z,32.00
2024-02-07T02:46:44.998Z,32.00
2024-02-07T02:47:48.211Z,32.00
2024-02-07T02:48:50.354Z,32.50
2024-02-07T02:49:53.673Z,33.00
2024-02-07T02:50:55.927Z,33.50
2024-02-07T02:51:59.082Z,35.17
2024-02-07T02:53:02.144Z,37.33
2024-02-07T02:54:05.392Z,40.00
2024-02-07T02:55:08.719Z,47.00
2024-02-07T02:56:13.437Z,57.83
2024-02-07T02:57:17.259Z,59.00
2024-02-07T02:58:28.441Z,61.33
2024-02-07T02:59:42.103Z,65.67
2024-02-07T03:00:48.100Z,71.00
2024-02-07T03:01:52.651Z,77.33
2024-02-07T03:02:57.593Z,80.67
2024-02-07T03:04:00.987Z,94.50
2024-02-07T03:05:04.551Z,100.83
2024-02-07T03:06:20.203Z,94.17
2024-02-07T03:07:45.053Z,89.67
2024-02-07T03:08:56.028Z,83.50
2024-02-07T03:09:58.491Z,81.67
2024-02-07T03:11:00.658Z,81.17
2024-02-07T03:12:03.923Z,82.67
2024-02-07T03:13:06.120Z,82.17
2024-02-07T03:14:09.194Z,82.67
2024-02-07T03:15:12.921Z,87.00
2024-02-07T03:16:15.999Z,93.33
2024-02-07T03:17:18.491Z,98.33
2024-02-07T03:18:23.058Z,100.33
2024-02-07T03:19:25.276Z,100.00
2024-02-07T03:20:28.498Z,99.00
2024-02-07T03:21:31.586Z,97.50
2024-02-07T03:22:34.779Z,97.00
2024-02-07T03:23:37.357Z,96.00
2024-02-07T03:24:41.102Z,95.83
2024-02-07T03:25:43.411Z,95.00
2024-02-07T03:26:47.867Z,95.00
2024-02-07T03:27:50.075Z,94.67
2024-02-07T03:28:53.281Z,94.00
2024-02-07T03:29:57.416Z,92.67
2024-02-07T03:31:01.182Z,90.67
2024-02-07T03:32:05.098Z,89.33
2024-02-07T03:33:08.092Z,88.33
2024-02-07T03:34:11.716Z,87.33
2024-02-07T03:35:15.311Z,87.00
2024-02-07T03:36:17.447Z,86.67
2024-02-07T03:37:20.956Z,86.17
2024-02-07T03:38:23.149Z,87.00
2024-02-07T03:39:26.380Z,87.67
2024-02-07T03:40:28.710Z,88.83
2024-02-07T03:41:31.845Z,90.00
2024-02-07T03:42:35.081Z,91.33
2024-02-07T03:43:37.496Z,92.00
2024-02-07T03:44:40.805Z,92.00
2024-02-07T03:45:43.866Z,91.67
2024-02-07T03:46:50.265Z,91.00
2024-02-07T03:47:52.537Z,91.00
2024-02-07T03:48:55.758Z,92.33
2024-02-07T03:49:58.479Z,93.00
2024-02-07T03:51:01.631Z,92.00
2024-02-07T03:52:04.059Z,92.00
2024-02-07T03:53:09.126Z,92.00
2024-02-07T03:54:11.376Z,92.00
2024-02-07T03:55:15.109Z,92.00
2024-02-07T03:56:17.272Z,92.83
2024-02-07T03:57:21.289Z,93.83
2024-02-07T03:58:25.581Z,96.00
2024-02-07T03:59:29.370Z,97.83
2024-02-07T04:00:31.672Z,100.17
2024-02-07T04:01:33.911Z,104.50
2024-02-07T04:02:40.408Z,104.17
2024-02-07T04:03:42.547Z,101.83
2024-02-07T04:04:46.179Z,97.83
2024-02-07T04:05:48.368Z,94.83
2024-02-07T04:06:52.978Z,93.50
2024-02-07T04:07:55.492Z,92.67
2024-02-07T04:08:59.004Z,92.00
2024-02-07T04:10:01.345Z,92.00
2024-02-07T04:11:08.756Z,92.00
2024-02-07T04:12:11.074Z,92.00
2024-02-07T04:13:13.271Z,92.00
2024-02-07T04:14:15.354Z,92.00
2024-02-07T04:15:35.919Z,93.00
2024-02-07T04:16:56.636Z,93.33
2024-02-07T04:18:19.979Z,93.83
2024-02-07T04:19:40.522Z,93.00
2024-02-07T04:21:02.205Z,92.00
2024-02-07T04:22:22.737Z,92.17
2024-02-07T04:23:43.351Z,96.17
2024-02-07T04:25:03.708Z,102.17
2024-02-07T04:26:24.202Z,108.83
2024-02-07T04:27:45.638Z,108.83
2024-02-07T04:29:06.242Z,107.50
2024-02-07T04:30:27.805Z,107.83
2024-02-07T04:31:48.491Z,109.00
2024-02-07T04:33:09.248Z,108.00
2024-02-07T04:34:31.402Z,108.00
2024-02-07T04:35:51.882Z,108.83
2024-02-07T04:37:12.387Z,112.17
2024-02-07T04:38:33.094Z,117.67
2024-02-07T04:39:53.559Z,123.17
2024-02-07T04:41:14.107Z,124.83
2024-02-07T04:42:34.612Z,125.67
2024-02-07T04:43:55.203Z,124.83
2024-02-07T04:45:15.800Z,124.00
2024-02-07T04:46:36.587Z,124.33
2024-02-07T04:47:57.383Z,126.50
2024-02-07T04:49:17.953Z,131.67
2024-02-07T04:50:39.901Z,138.50
2024-02-07T04:52:00.420Z,147.50
2024-02-07T04:53:21.246Z,152.50
2024-02-07T04:54:41.761Z,157.67
2024-02-07T04:56:02.372Z,162.50
2024-02-07T04:57:23.424Z,165.50
2024-02-07T04:58:43.957Z,171.67
2024-02-07T05:00:04.470Z,162.50
2024-02-07T05:01:25.192Z,159.33
2024-02-07T05:02:46.288Z,157.00
2024-02-07T05:04:06.803Z,154.17
2024-02-07T05:05:27.875Z,151.17
2024-02-07T05:06:49.806Z,149.17
2024-02-07T05:08:10.376Z,148.00
2024-02-07T05:09:31.030Z,148.00
2024-02-07T05:10:51.891Z,147.00
2024-02-07T05:12:12.407Z,163.83
2024-02-07T05:13:32.916Z,166.17
2024-02-07T05:14:49.988Z,168.33
2024-02-07T05:15:53.533Z,168.67
2024-02-07T05:16:55.907Z,171.00
2024-02-07T05:17:58.123Z,171.00
2024-02-07T05:19:03.384Z,171.67
2024-02-07T05:20:06.609Z,183.50
2024-02-07T05:21:12.271Z,180.67
2024-02-07T05:22:18.236Z,178.67
2024-02-07T05:23:22.083Z,177.17
2024-02-07T05:24:24.707Z,176.33
2024-02-07T05:25:26.870Z,176.00
2024-02-07T05:26:32.243Z,175.33
2024-02-07T05:27:34.479Z,174.33
2024-02-07T05:28:38.379Z,167.00
2024-02-07T05:29:41.153Z,156.67
2024-02-07T05:30:44.277Z,152.17
2024-02-07T05:31:46.939Z,148.33
2024-02-07T05:32:51.259Z,145.50
2024-02-07T05:33:53.956Z,145.33
2024-02-07T05:34:57.280Z,147.17
2024-02-07T05:35:59.646Z,149.33
2024-02-07T05:37:02.982Z,172.33
2024-02-07T05:38:06.391Z,230.83
2024-02-07T05:39:09.459Z,209.67
2024-02-07T05:40:12.952Z,199.83
2024-02-07T05:41:16.048Z,231.00
2024-02-07T05:42:18.375Z,217.83
2024-02-07T05:43:21.601Z,207.83
2024-02-07T05:44:23.803Z,202.50
2024-02-07T05:45:26.905Z,200.50
2024-02-07T05:46:29.076Z,198.33
2024-02-07T05:47:32.150Z,192.83
2024-02-07T05:48:35.296Z,182.67
2024-02-07T05:49:37.501Z,173.83
2024-02-07T05:50:40.645Z,170.50
2024-02-07T05:51:43.467Z,172.67
2024-02-07T05:52:45.937Z,174.00
2024-02-07T05:53:50.944Z,174.33
2024-02-07T05:54:56.224Z,172.50
2024-02-07T05:56:09.268Z,183.50
2024-02-07T05:57:12.763Z,195.00
2024-02-07T05:58:19.050Z,224.83
2024-02-07T05:59:23.630Z,226.17
2024-02-07T06:00:26.709Z,223.00
2024-02-07T06:01:28.934Z,216.67
2024-02-07T06:02:32.212Z,214.33
2024-02-07T06:03:34.307Z,239.33
2024-02-07T06:04:37.751Z,253.67
2024-02-07T06:05:41.083Z,235.67
2024-02-07T06:06:47.002Z,243.67
2024-02-07T06:07:49.215Z,242.00
2024-02-07T06:08:55.553Z,246.33
2024-02-07T06:09:58.710Z,245.67
2024-02-07T06:11:01.943Z,241.67
2024-02-07T06:12:05.190Z,240.33
2024-02-07T06:13:08.282Z,254.67
2024-02-07T06:14:12.071Z,251.50
2024-02-07T06:15:15.518Z,246.83
2024-02-07T06:16:17.712Z,246.67
2024-02-07T06:17:20.891Z,247.33
2024-02-07T06:18:25.982Z,255.33
2024-02-07T06:19:31.682Z,252.83
2024-02-07T06:20:34.224Z,248.67
2024-02-07T06:21:38.790Z,236.17
2024-02-07T06:22:46.836Z,230.67
2024-02-07T06:23:50.303Z,230.83
2024-02-07T06:24:53.738Z,231.00
2024-02-07T06:25:57.702Z,234.33
2024-02-07T06:26:59.931Z,235.00
2024-02-07T06:28:03.101Z,235.67
2024-02-07T06:29:05.265Z,235.83
2024-02-07T06:30:09.630Z,234.50
2024-02-07T06:31:12.536Z,247.67
2024-02-07T06:32:15.640Z,247.33
2024-02-07T06:33:18.035Z,248.50
2024-02-07T06:34:20.667Z,248.00
2024-02-07T06:35:24.026Z,247.17
2024-02-07T06:36:29.234Z,301.33
2024-02-07T06:37:32.383Z,284.33
2024-02-07T06:38:34.560Z,268.83
2024-02-07T06:39:40.430Z,265.50
2024-02-07T06:40:45.564Z,264.17
2024-02-07T06:41:49.096Z,263.00
2024-02-07T06:42:54.326Z,262.17
2024-02-07T06:43:58.590Z,262.00
2024-02-07T06:45:00.957Z,263.67
2024-02-07T06:46:05.161Z,263.33
2024-02-07T06:47:12.344Z,263.67
2024-02-07T06:48:15.496Z,269.00
2024-02-07T06:49:18.083Z,276.17
2024-02-07T06:50:23.598Z,282.33
2024-02-07T06:51:25.990Z,283.00
2024-02-07T06:52:29.217Z,278.67
2024-02-07T06:53:31.429Z,277.33
2024-02-07T06:54:34.678Z,276.00
2024-02-07T06:55:37.548Z,275.00
2024-02-07T06:56:42.494Z,274.17
2024-02-07T06:57:44.864Z,275.83
2024-02-07T06:58:47.192Z,278.17
2024-02-07T06:59:51.271Z,274.17
2024-02-07T07:00:54.511Z,268.17
2024-02-07T07:01:57.200Z,298.83
2024-02-07T07:03:01.266Z,314.17
2024-02-07T07:04:03.602Z,304.67
2024-02-07T07:05:07.136Z,333.17
2024-02-07T07:06:09.359Z,320.00
2024-02-07T07:07:14.339Z,308.00
2024-02-07T07:08:16.533Z,311.67
2024-02-07T07:09:19.897Z,317.17
2024-02-07T07:10:22.151Z,310.83
2024-02-07T07:11:25.292Z,307.17
2024-02-07T07:12:28.854Z,307.67
2024-02-07T07:13:32.052Z,331.83
2024-02-07T07:14:38.786Z,270.83
2024-02-07T07:15:41.938Z,252.83
2024-02-07T07:16:44.167Z,249.17
2024-02-07T07:17:46.252Z,238.00
2024-02-07T07:18:50.668Z,221.83
2024-02-07T07:19:52.835Z,215.50
2024-02-07T07:20:56.186Z,209.50
2024-02-07T07:21:58.297Z,214.00
2024-02-07T07:23:12.132Z,241.00
2024-02-07T07:24:18.285Z,285.17
2024-02-07T07:25:21.414Z,265.17
2024-02-07T07:26:24.994Z,306.67
2024-02-07T07:27:29.640Z,289.83
2024-02-07T07:28:31.844Z,223.83
2024-02-07T07:29:34.916Z,200.67
2024-02-07T07:30:37.151Z,189.33
2024-02-07T07:31:40.245Z,180.17
2024-02-07T07:32:43.401Z,169.50
2024-02-07T07:33:46.506Z,159.33
2024-02-07T07:34:48.840Z,148.17
2024-02-07T07:35:52.252Z,133.50
2024-02-07T07:36:54.681Z,129.50
2024-02-07T07:37:58.137Z,127.83
2024-02-07T07:39:00.337Z,126.33
2024-02-07T07:40:05.017Z,130.00
2024-02-07T07:41:09.487Z,134.00
2024-02-07T07:42:13.573Z,129.00
2024-02-07T07:43:17.131Z,125.17
2024-02-07T07:44:20.422Z,125.50
2024-02-07T07:45:22.696Z,125.00
2024-02-07T07:46:25.876Z,123.50
2024-02-07T07:47:27.987Z,181.17
2024-02-07T07:48:31.359Z,202.00
2024-02-07T07:49:33.704Z,202.00
2024-02-07T07:50:36.994Z,185.67
2024-02-07T07:51:39.216Z,197.33
2024-02-07T07:52:42.556Z,177.83
2024-02-07T07:53:44.760Z,166.33
2024-02-07T07:54:47.902Z,163.67
2024-02-07T07:55:50.091Z,185.00
2024-02-07T07:56:53.370Z,260.17
2024-02-07T07:57:55.864Z,309.50
2024-02-07T07:59:00.603Z,336.50
2024-02-07T08:00:03.011Z,278.17
2024-02-07T08:01:06.497Z,226.50
2024-02-07T08:02:08.758Z,237.67
2024-02-07T08:03:12.983Z,253.50
2024-02-07T08:04:15.267Z,234.33
2024-02-07T08:05:17.618Z,201.33
2024-02-07T08:06:22.257Z,220.83
2024-02-07T08:07:24.696Z,245.33
2024-02-07T08:08:28.063Z,194.50
2024-02-07T08:09:30.275Z,167.50
2024-02-07T08:10:32.382Z,155.67
2024-02-07T08:11:35.517Z,163.17
2024-02-07T08:12:40.358Z,198.50
2024-02-07T08:13:43.964Z,145.50
2024-02-07T08:14:47.681Z,137.00
2024-02-07T08:15:50.806Z,115.67
2024-02-07T08:16:53.597Z,100.50
2024-02-07T08:17:58.182Z,94.17
2024-02-07T08:19:00.487Z,92.17
2024-02-07T08:20:03.954Z,88.33
2024-02-07T08:21:06.811Z,88.50
2024-02-07T08:22:09.985Z,79.67
2024-02-07T08:23:12.713Z,70.83
2024-02-07T08:24:15.827Z,65.17
2024-02-07T08:25:17.927Z,62.33
2024-02-07T08:26:22.812Z,60.33
2024-02-07T08:27:25.052Z,59.50
2024-02-07T08:28:28.263Z,59.33
2024-02-07T08:29:30.451Z,54.50
2024-02-07T08:30:35.019Z,50.33
2024-02-07T08:31:37.129Z,48.83
2024-02-07T08:32:40.373Z,47.00
2024-02-07T08:33:42.816Z,50.00
2024-02-07T08:34:46.316Z,59.67
2024-02-07T08:35:49.169Z,60.00
2024-02-07T08:36:52.343Z,58.00
2024-02-07T08:37:56.277Z,57.67
2024-02-07T08:39:00.076Z,56.50
2024-02-07T08:40:02.242Z,56.17
2024-02-07T08:41:10.655Z,58.00
2024-02-07T08:42:41.399Z,56.17
2024-02-07T08:43:44.552Z,130.33
2024-02-07T08:44:46.871Z,111.67
2024-02-07T08:45:51.372Z,90.50
2024-02-07T08:46:53.581Z,85.00
2024-02-07T08:47:56.822Z,73.33
2024-02-07T08:48:59.007Z,62.50
2024-02-07T08:50:02.265Z,52.83
2024-02-07T08:51:04.599Z,40.67
2024-02-07T08:52:07.795Z,98.67
2024-02-07T08:53:11.149Z,182.33
2024-02-07T08:54:14.369Z,128.17
2024-02-07T08:55:19.919Z,172.67
2024-02-07T08:56:24.056Z,163.50
2024-02-07T08:57:29.136Z,156.33
2024-02-07T08:58:36.279Z,145.33
2024-02-07T08:59:47.178Z,159.33
2024-02-07T09:00:52.974Z,213.00
2024-02-07T09:01:55.448Z,206.50
2024-02-07T09:02:58.781Z,197.50
2024-02-07T09:04:00.860Z,129.50
2024-02-07T09:05:05.984Z,86.00
2024-02-07T09:06:11.715Z,77.83
2024-02-07T09:07:16.597Z,82.17
2024-02-07T09:08:19.794Z,71.83
2024-02-07T09:09:23.051Z,54.33
2024-02-07T09:10:25.497Z,42.17
2024-02-07T09:11:29.830Z,38.17
2024-02-07T09:12:32.071Z,35.33
2024-02-07T09:13:35.369Z,35.33
2024-02-07T09:14:37.482Z,32.67
2024-02-07T09:15:40.699Z,28.67
2024-02-07T09:16:44.359Z,28.00
2024-02-07T09:17:46.673Z,28.67
2024-02-07T09:18:49.776Z,25.50
2024-02-07T09:19:52.088Z,23.83
2024-02-07T09:20:55.269Z,21.50
2024-02-07T09:21:57.368Z,19.67
2024-02-07T09:23:00.680Z,18.67
2024-02-07T09:24:02.955Z,19.17
2024-02-07T09:25:06.927Z,22.00
2024-02-07T09:26:09.178Z,24.17
2024-02-07T09:27:12.886Z,26.00
2024-02-07T09:28:15.192Z,27.67
2024-02-07T09:29:18.367Z,28.00
2024-02-07T09:30:20.604Z,27.67
2024-02-07T09:31:23.792Z,26.17
2024-02-07T09:32:27.303Z,26.00
2024-02-07T09:33:30.656Z,26.50
2024-02-07T09:34:33.241Z,27.00
2024-02-07T09:35:36.706Z,27.00
2024-02-07T09:36:39.954Z,27.33
2024-02-07T09:37:43.049Z,28.00
2024-02-07T09:38:46.400Z,28.83
2024-02-07T09:39:48.561Z,34.50
2024-02-07T09:40:54.945Z,44.67
2024-02-07T09:41:58.763Z,60.50
2024-02-07T09:43:03.940Z,61.33
2024-02-07T09:44:06.781Z,63.67
2024-02-07T09:45:14.075Z,58.67
2024-02-07T09:46:19.796Z,59.00
2024-02-07T09:47:23.685Z,87.00
2024-02-07T09:48:29.657Z,191.17
2024-02-07T09:49:32.503Z,274.33
2024-02-07T09:50:36.579Z,248.67
2024-02-07T09:51:38.981Z,262.50
2024-02-07T09:52:43.605Z,271.00
2024-02-07T09:53:46.372Z,206.83
2024-02-07T09:54:52.630Z,200.17
2024-02-07T09:55:55.804Z,226.67
2024-02-07T09:57:00.211Z,211.17
2024-02-07T09:58:02.916Z,204.83
2024-02-07T09:59:06.538Z,216.50
2024-02-07T10:00:10.128Z,320.33
2024-02-07T10:01:16.614Z,345.50
2024-02-07T10:02:20.654Z,356.00
2024-02-07T10:03:26.063Z,299.83
2024-02-07T10:04:36.554Z,284.50
2024-02-07T10:05:40.225Z,328.50
2024-02-07T10:06:43.089Z,348.67
2024-02-07T10:07:46.549Z,295.83
2024-02-07T10:08:49.630Z,255.17
2024-02-07T10:09:53.983Z,190.17
2024-02-07T10:10:56.670Z,219.50
2024-02-07T10:12:01.602Z,145.33
2024-02-07T10:13:05.124Z,132.67
2024-02-07T10:14:11.090Z,146.17
2024-02-07T10:15:14.231Z,193.33
2024-02-07T10:16:19.203Z,161.17
2024-02-07T10:17:21.416Z,101.50
2024-02-07T10:18:24.589Z,89.33
2024-02-07T10:19:27.196Z,149.17
2024-02-07T10:20:31.909Z,132.50
2024-02-07T10:21:34.810Z,117.67
2024-02-07T10:22:40.805Z,120.00
2024-02-07T10:23:43.597Z,107.00
2024-02-07T10:24:47.037Z,101.00
2024-02-07T10:25:50.007Z,101.33
2024-02-07T10:26:53.242Z,125.67
2024-02-07T10:28:02.509Z,146.83
2024-02-07T10:29:10.501Z,195.33
2024-02-07T10:30:14.526Z,143.00
2024-02-07T10:31:19.128Z,90.67
2024-02-07T10:32:22.537Z,63.83
2024-02-07T10:33:32.226Z,77.17
2024-02-07T10:34:38.324Z,59.50
2024-02-07T10:35:42.922Z,68.17
2024-02-07T10:36:46.164Z,122.00
2024-02-07T10:37:48.448Z,144.50
2024-02-07T10:38:54.608Z,103.50
2024-02-07T10:40:05.263Z,66.00
2024-02-07T10:41:07.946Z,74.83
2024-02-07T10:42:12.489Z,81.83
2024-02-07T10:43:24.952Z,84.33
2024-02-07T10:44:28.106Z,80.17
2024-02-07T10:45:30.157Z,88.17
2024-02-07T10:46:33.489Z,147.17
2024-02-07T10:47:37.397Z,262.83
2024-02-07T10:48:40.897Z,278.50
2024-02-07T10:49:45.273Z,162.67
2024-02-07T10:50:50.047Z,172.00
2024-02-07T10:51:53.286Z,258.33
2024-02-07T10:52:55.504Z,272.50
2024-02-07T10:54:05.082Z,204.67
2024-02-07T10:55:08.166Z,152.17
2024-02-07T10:56:17.073Z,93.50
2024-02-07T10:57:28.887Z,142.50
2024-02-07T10:58:33.500Z,110.83
2024-02-07T10:59:40.271Z,120.67
2024-02-07T11:00:44.669Z,132.33
2024-02-07T11:01:47.516Z,120.67
2024-02-07T11:02:54.152Z,93.00
2024-02-07T11:03:57.648Z,108.50
2024-02-07T11:05:02.198Z,86.33
2024-02-07T11:06:06.494Z,68.00
2024-02-07T11:07:15.203Z,58.83
2024-02-07T11:08:17.857Z,52.17
2024-02-07T11:09:21.018Z,45.00
2024-02-07T11:10:24.011Z,45.67
2024-02-07T11:11:29.229Z,40.83
2024-02-07T11:12:32.322Z,40.83
2024-02-07T11:13:35.767Z,60.33
2024-02-07T11:14:38.633Z,71.00
2024-02-07T11:15:42.343Z,72.00
2024-02-07T11:16:44.513Z,77.33
2024-02-07T11:17:47.639Z,83.67
2024-02-07T11:18:49.749Z,81.00
2024-02-07T11:19:53.494Z,81.00
2024-02-07T11:20:57.289Z,80.83
2024-02-07T11:22:03.077Z,75.50
2024-02-07T11:23:09.671Z,52.67
2024-02-07T11:24:16.233Z,48.83
2024-02-07T11:25:20.770Z,59.50
2024-02-07T11:26:24.177Z,74.00
2024-02-07T11:27:26.839Z,128.00
2024-02-07T11:28:30.554Z,110.33
2024-02-07T11:29:34.718Z,102.67
2024-02-07T11:30:38.463Z,88.33
2024-02-07T11:31:40.871Z,162.17
2024-02-07T11:32:44.257Z,228.50
2024-02-07T11:33:51.098Z,174.00
2024-02-07T11:34:54.891Z,264.83
2024-02-07T11:36:07.646Z,178.50
2024-02-07T11:37:12.466Z,117.83
2024-02-07T11:38:18.767Z,111.33
2024-02-07T11:39:20.815Z,118.50
2024-02-07T11:40:28.235Z,158.33
2024-02-07T11:41:30.656Z,117.00
2024-02-07T11:42:37.949Z,105.00
2024-02-07T11:43:43.888Z,135.17
2024-02-07T11:44:53.121Z,92.67
2024-02-07T11:46:05.371Z,84.17
2024-02-07T11:47:09.335Z,82.17
2024-02-07T11:48:19.417Z,96.33
2024-02-07T11:49:28.978Z,90.33
2024-02-07T11:50:36.619Z,74.67
2024-02-07T11:51:40.208Z,62.83
2024-02-07T11:52:44.915Z,79.17
2024-02-07T11:53:48.449Z,81.17
2024-02-07T11:54:51.335Z,79.17
2024-02-07T11:55:54.796Z,78.33
2024-02-07T11:57:00.006Z,125.83
2024-02-07T11:58:06.126Z,89.17
2024-02-07T11:59:08.436Z,46.00
2024-02-07T12:00:15.019Z,48.17
2024-02-07T12:01:17.801Z,42.50
2024-02-07T12:02:21.195Z,48.17
2024-02-07T12:03:23.418Z,74.50
2024-02-07T12:04:26.722Z,81.00
2024-02-07T12:05:29.097Z,77.00
2024-02-07T12:06:32.426Z,73.67
2024-02-07T12:07:36.526Z,67.50
2024-02-07T12:08:41.545Z,64.33
2024-02-07T12:09:43.917Z,56.67
2024-02-07T12:10:47.108Z,103.83
2024-02-07T12:11:49.426Z,111.17
2024-02-07T12:12:55.507Z,101.00
2024-02-07T12:13:57.922Z,98.83
2024-02-07T12:15:01.142Z,107.17
2024-02-07T12:16:06.335Z,91.67
2024-02-07T12:17:09.684Z,62.83
2024-02-07T12:18:11.988Z,46.67
2024-02-07T12:19:17.072Z,47.50
2024-02-07T12:20:20.048Z,56.83
2024-02-07T12:21:25.995Z,48.17
2024-02-07T12:22:29.118Z,37.67
2024-02-07T12:23:33.620Z,37.00
2024-02-07T12:24:37.889Z,48.83
2024-02-07T12:25:41.142Z,80.17
2024-02-07T12:26:43.692Z,102.17
2024-02-07T12:27:47.235Z,92.17
2024-02-07T12:28:55.005Z,99.50
2024-02-07T12:29:59.688Z,98.83
2024-02-07T12:31:02.398Z,139.67
2024-02-07T12:32:06.144Z,123.33
2024-02-07T12:33:11.774Z,167.50
2024-02-07T12:34:15.894Z,156.00
2024-02-07T12:35:18.831Z,121.17
2024-02-07T12:36:22.265Z,116.17
2024-02-07T12:37:25.664Z,81.33
2024-02-07T12:38:27.964Z,75.83
2024-02-07T12:39:34.685Z,72.33
2024-02-07T12:40:38.200Z,54.33
2024-02-07T12:41:41.698Z,47.33
2024-02-07T12:42:45.477Z,41.50
2024-02-07T12:43:48.702Z,51.83
2024-02-07T12:44:50.949Z,62.17
2024-02-07T12:45:56.507Z,50.17
2024-02-07T12:46:59.308Z,47.50
2024-02-07T12:48:06.006Z,47.00
2024-02-07T12:49:11.155Z,47.83
2024-02-07T12:50:18.481Z,51.83
2024-02-07T12:51:20.930Z,41.33
2024-02-07T12:52:24.582Z,30.00
2024-02-07T12:53:30.275Z,27.00
2024-02-07T12:54:33.817Z,36.50
2024-02-07T12:55:38.445Z,30.33
2024-02-07T12:56:43.157Z,21.00
2024-02-07T12:57:49.919Z,23.33
2024-02-07T12:58:58.062Z,29.83
2024-02-07T13:00:12.409Z,30.33
2024-02-07T13:01:27.839Z,21.00
2024-02-07T13:02:31.011Z,25.00
2024-02-07T13:03:38.013Z,33.50
2024-02-07T13:04:42.752Z,42.50
2024-02-07T13:05:45.856Z,48.50
2024-02-07T13:06:49.868Z,49.00
2024-02-07T13:07:53.845Z,49.83
2024-02-07T13:08:59.684Z,56.33
2024-02-07T13:10:02.972Z,54.00
2024-02-07T13:11:11.782Z,48.50
2024-02-07T13:12:24.579Z,34.17
2024-02-07T13:13:33.572Z,20.17
2024-02-07T13:14:35.683Z,23.50
2024-02-07T13:15:39.174Z,26.33
2024-02-07T13:16:45.686Z,29.33
2024-02-07T13:17:51.549Z,33.50
2024-02-07T13:18:56.819Z,24.83
2024-02-07T13:20:00.069Z,19.17
2024-02-07T13:21:06.709Z,21.33
2024-02-07T13:22:15.501Z,23.00
2024-02-07T13:23:22.842Z,21.00
2024-02-07T13:24:25.506Z,20.17
2024-02-07T13:25:28.805Z,21.67
2024-02-07T13:26:31.206Z,24.83
2024-02-07T13:27:35.964Z,25.00
2024-02-07T13:28:40.849Z,26.50
2024-02-07T13:29:45.737Z,40.67
2024-02-07T13:30:48.146Z,40.83
2024-02-07T13:31:55.567Z,39.33
2024-02-07T13:33:00.884Z,31.83
2024-02-07T13:34:14.319Z,25.17
2024-02-07T13:35:17.953Z,60.67
2024-02-07T13:36:21.394Z,119.17
2024-02-07T13:37:23.834Z,129.33
2024-02-07T13:38:34.087Z,86.50
2024-02-07T13:39:39.601Z,71.33
2024-02-07T13:40:43.066Z,68.67
2024-02-07T13:41:46.682Z,49.83
2024-02-07T13:42:51.088Z,35.83
2024-02-07T13:43:53.551Z,36.17
2024-02-07T13:44:58.110Z,68.33
2024-02-07T13:46:00.429Z,68.17
2024-02-07T13:47:07.317Z,65.00
2024-02-07T13:48:09.838Z,74.67